Bo Airport

Jump to: basic info | weather | comments

Related pages: nearby airports | nearby navaids | notams | map

Basic information (top)

Codes: KBS GFBO
Location: lon 7.944400, lat -11.761000, elev 328 ft / 100 m msl
Status: medium_airport
Scheduled airline service: yes
Links: Wikipedia Mobile

Weather (top)

Current conditions for Lungi International Airport 94nm (175km) WNW (rec'd 2014/04/25 00:00Z):

GFLL 250000Z 27010KT 9999 SCT013 FEW030CB 27/24 Q1011 RMK-CB/NE

Airport forecast for Lungi International Airport 94nm (175km) WNW (rec'd 2014/04/24 12:00Z):

TAF GFLL 241000Z 2412/2518 31008KT BKN012 
      TEMPO 2413/2417 28010KT 9999 SCT014 PROB30 
      BECMG 2418/2420 26008KT 9000 -TSRA BKN011 FEW026CB 
      TEMPO 2400/251200

Latest comments (top)

No comments yet for Bo Airport

More... (top)

See also NOTAMs and nearby airports and navaids, or visit the Bo Airport page at the main OurAirports website..